createdAt,value
2022-08-19T00:00:31.076Z,25.21
2022-08-19T00:05:32.871Z,25.08
2022-08-19T00:10:35.130Z,24.90
2022-08-19T00:15:37.017Z,24.80
2022-08-19T00:20:41.414Z,24.75
2022-08-19T00:25:43.094Z,24.76
2022-08-19T00:30:52.927Z,24.77
2022-08-19T00:35:56.422Z,24.82
2022-08-19T00:40:58.584Z,24.88
2022-08-19T00:46:00.382Z,24.95
2022-08-19T00:51:02.603Z,25.02
2022-08-19T00:56:07.318Z,25.07
2022-08-19T01:01:08.999Z,25.11
2022-08-19T01:06:14.075Z,25.14
2022-08-19T01:11:22.231Z,25.16
2022-08-19T01:16:27.518Z,25.18
2022-08-19T01:21:38.753Z,25.19
2022-08-19T01:26:44.142Z,25.19
2022-08-19T01:31:45.939Z,25.07
2022-08-19T01:36:50.192Z,24.97
2022-08-19T01:41:55.369Z,24.90
2022-08-19T01:46:57.416Z,24.86
2022-08-19T01:52:00.912Z,24.71
2022-08-19T01:57:08.086Z,24.55
2022-08-19T02:02:10.030Z,24.41
2022-08-19T02:07:11.660Z,24.31
2022-08-19T02:12:13.418Z,24.24
2022-08-19T02:17:15.307Z,24.19
2022-08-19T02:22:16.945Z,24.22
2022-08-19T02:27:18.876Z,24.28
2022-08-19T02:32:21.082Z,24.30
2022-08-19T02:37:40.952Z,24.37
2022-08-19T02:42:43.776Z,24.40
2022-08-19T02:47:45.476Z,24.46
2022-08-19T02:52:47.163Z,24.51
2022-08-19T02:57:49.616Z,24.56
2022-08-19T03:02:51.321Z,24.53
2022-08-19T03:07:52.869Z,24.49
2022-08-19T03:12:54.665Z,24.52
2022-08-19T03:17:57.191Z,24.53
2022-08-19T03:22:59.095Z,24.53
2022-08-19T03:28:00.644Z,24.55
2022-08-19T03:33:02.864Z,24.58
2022-08-19T03:38:07.835Z,24.60
2022-08-19T03:43:09.641Z,24.64
2022-08-19T03:48:11.351Z,24.67
2022-08-19T03:53:13.025Z,24.65
2022-08-19T03:58:14.714Z,24.65
2022-08-19T04:03:16.614Z,24.68
2022-08-19T04:08:21.126Z,24.70
2022-08-19T04:13:23.295Z,24.70
2022-08-19T04:18:25.075Z,24.71
2022-08-19T04:23:29.257Z,24.71
2022-08-19T04:28:31.322Z,24.74
2022-08-19T04:33:33.290Z,24.76
2022-08-19T04:38:35.185Z,24.76
2022-08-19T04:43:39.454Z,24.80
2022-08-19T04:48:44.920Z,24.81
2022-08-19T04:53:52.250Z,24.81
2022-08-19T04:58:56.273Z,24.79
2022-08-19T05:03:59.691Z,24.79
2022-08-19T05:09:04.879Z,24.80
2022-08-19T05:14:08.633Z,24.79
2022-08-19T05:19:28.899Z,24.72
2022-08-19T05:24:51.199Z,24.67
2022-08-19T05:29:58.282Z,24.69
2022-08-19T05:35:00.083Z,24.71
2022-08-19T05:40:02.486Z,24.72
2022-08-19T05:45:05.507Z,24.75
2022-08-19T05:50:07.788Z,24.71
2022-08-19T05:55:09.600Z,24.61
2022-08-19T06:00:13.431Z,24.56
2022-08-19T06:05:16.737Z,24.52
2022-08-19T06:10:18.729Z,24.52
2022-08-19T06:15:20.814Z,24.54
2022-08-19T06:20:39.923Z,24.59
2022-08-19T06:25:44.413Z,24.63
2022-08-19T06:30:46.647Z,24.65
2022-08-19T06:35:49.587Z,24.68
2022-08-19T06:41:00.532Z,24.70
2022-08-19T06:46:02.934Z,24.75
2022-08-19T06:51:08.716Z,24.77
2022-08-19T06:56:10.611Z,24.84
2022-08-19T07:01:12.222Z,24.88
2022-08-19T07:06:43.263Z,24.90
2022-08-19T07:11:52.760Z,24.91
2022-08-19T07:16:57.204Z,24.90
2022-08-19T07:22:02.616Z,24.92
2022-08-19T07:27:15.078Z,24.97
2022-08-19T07:32:17.299Z,24.99
2022-08-19T07:37:19.691Z,24.91
2022-08-19T07:42:22.493Z,24.86
2022-08-19T07:47:48.734Z,24.93
2022-08-19T07:52:48.980Z,25.02
2022-08-19T07:57:53.507Z,25.09
2022-08-19T08:02:56.066Z,25.18
2022-08-19T08:08:17.223Z,25.25
2022-08-19T08:13:19.408Z,25.30
2022-08-19T08:18:21.656Z,25.36
2022-08-19T08:23:25.911Z,25.40
2022-08-19T08:28:31.313Z,25.44
2022-08-19T08:33:35.239Z,25.48
2022-08-19T08:38:40.264Z,25.51
2022-08-19T08:43:48.614Z,25.54
2022-08-19T08:48:55.716Z,25.52
2022-08-19T08:53:58.725Z,25.41
2022-08-19T08:59:09.312Z,25.44
2022-08-19T09:04:13.869Z,25.50
2022-08-19T09:09:22.253Z,25.53
2022-08-19T09:14:50.277Z,25.56
2022-08-19T09:19:57.582Z,25.61
2022-08-19T09:25:10.149Z,25.56
2022-08-19T09:30:24.881Z,25.62
2022-08-19T09:35:29.799Z,25.67
2022-08-19T09:40:36.579Z,25.56
2022-08-19T09:45:41.156Z,25.51
2022-08-19T09:50:51.904Z,25.59
2022-08-19T09:55:59.311Z,25.59
2022-08-19T10:01:03.111Z,25.69
2022-08-19T10:06:14.978Z,25.79
2022-08-19T10:11:28.005Z,25.76
2022-08-19T10:16:39.703Z,25.73
2022-08-19T10:21:42.765Z,25.65
2022-08-19T10:26:48.548Z,25.59
2022-08-19T10:32:01.342Z,25.59
2022-08-19T10:37:10.755Z,25.64
2022-08-19T10:42:14.250Z,25.65
2022-08-19T10:47:17.815Z,25.69
2022-08-19T10:52:38.896Z,25.77
2022-08-19T10:58:02.207Z,25.82
2022-08-19T11:03:04.578Z,25.88
2022-08-19T11:08:23.131Z,25.95
2022-08-19T11:13:26.322Z,25.83
2022-08-19T11:18:29.210Z,25.71
2022-08-19T11:23:32.228Z,25.74
2022-08-19T11:28:37.696Z,25.82
2022-08-19T11:33:47.205Z,25.92
2022-08-19T11:38:52.857Z,25.99
2022-08-19T11:43:56.739Z,26.06
2022-08-19T11:49:01.549Z,26.12
2022-08-19T11:54:06.341Z,26.10
2022-08-19T11:59:14.052Z,25.92
2022-08-19T12:04:17.326Z,25.81
2022-08-19T12:09:20.524Z,25.78
2022-08-19T12:14:22.481Z,25.71
2022-08-19T12:19:26.970Z,25.77
2022-08-19T12:24:28.781Z,25.84
2022-08-19T12:29:30.882Z,25.87
2022-08-19T12:34:33.467Z,25.96
2022-08-19T12:39:41.594Z,26.04
2022-08-19T12:44:44.801Z,26.12
2022-08-19T12:49:53.365Z,26.22
2022-08-19T12:54:58.315Z,26.31
2022-08-19T13:00:16.414Z,26.33
2022-08-19T13:05:22.027Z,26.19
2022-08-19T13:10:28.714Z,26.18
2022-08-19T13:15:32.309Z,26.09
2022-08-19T13:20:33.957Z,26.02
2022-08-19T13:25:36.414Z,26.02
2022-08-19T13:30:56.635Z,25.94
2022-08-19T13:36:01.742Z,25.80
2022-08-19T13:41:13.289Z,25.78
2022-08-19T13:46:17.099Z,25.71
2022-08-19T13:51:20.729Z,25.68
2022-08-19T13:56:26.273Z,25.65
2022-08-19T14:01:28.424Z,25.65
2022-08-19T14:06:31.350Z,25.70
2022-08-19T14:11:34.047Z,25.67
2022-08-19T14:16:36.236Z,25.64
2022-08-19T14:21:41.634Z,25.62
2022-08-19T14:26:44.228Z,25.62
2022-08-19T14:31:46.918Z,25.65
2022-08-19T14:36:49.394Z,25.70
2022-08-19T14:41:51.802Z,25.74
2022-08-19T14:46:54.297Z,25.82
2022-08-19T14:51:56.273Z,25.90
2022-08-19T14:56:57.955Z,25.95
2022-08-19T15:02:00.697Z,26.01
2022-08-19T15:07:22.727Z,25.97
2022-08-19T15:12:32.538Z,25.97
2022-08-19T15:17:44.986Z,26.00
2022-08-19T15:22:48.697Z,26.07
2022-08-19T15:27:51.189Z,26.11
2022-08-19T15:32:55.788Z,26.13
2022-08-19T15:37:57.878Z,26.15
2022-08-19T15:42:59.496Z,26.10
2022-08-19T15:48:03.034Z,26.07
2022-08-19T15:53:08.454Z,26.00
2022-08-19T15:58:32.059Z,25.83
2022-08-19T16:03:52.207Z,25.56
2022-08-19T16:09:05.273Z,25.34
2022-08-19T16:14:09.576Z,25.28
2022-08-19T16:19:12.216Z,25.31
2022-08-19T16:24:16.661Z,25.33
2022-08-19T16:29:33.272Z,25.31
2022-08-19T16:34:38.061Z,25.13
2022-08-19T16:39:40.960Z,24.93
2022-08-19T16:44:48.010Z,24.86
2022-08-19T16:49:54.473Z,24.81
2022-08-19T16:55:00.181Z,24.78
2022-08-19T17:00:09.896Z,24.67
2022-08-19T17:05:12.576Z,24.60
2022-08-19T17:10:15.292Z,24.42
2022-08-19T17:15:17.048Z,24.29
2022-08-19T17:20:19.561Z,24.22
2022-08-19T17:25:21.217Z,24.08
2022-08-19T17:30:24.582Z,24.12
2022-08-19T17:35:27.321Z,24.14
2022-08-19T17:40:29.240Z,24.16
2022-08-19T17:45:31.909Z,24.20
2022-08-19T17:50:35.278Z,24.17
2022-08-19T17:55:36.961Z,24.14
2022-08-19T18:00:38.574Z,24.06
2022-08-19T18:05:57.276Z,24.02
2022-08-19T18:10:59.998Z,23.88
2022-08-19T18:16:03.565Z,23.74
2022-08-19T18:21:05.852Z,23.69
2022-08-19T18:26:07.932Z,23.67
2022-08-19T18:31:09.679Z,23.62
2022-08-19T18:36:11.910Z,23.47
2022-08-19T18:41:32.622Z,23.40
2022-08-19T18:46:53.664Z,23.30
2022-08-19T18:52:03.581Z,23.28
2022-08-19T18:57:05.998Z,23.23
2022-08-19T19:02:08.475Z,23.22
2022-08-19T19:07:10.238Z,23.14
2022-08-19T19:12:14.301Z,23.07
2022-08-19T19:17:16.963Z,22.97
2022-08-19T19:22:21.513Z,22.84
2022-08-19T19:27:24.693Z,22.81
2022-08-19T19:32:32.397Z,22.74
2022-08-19T19:37:35.545Z,22.63
2022-08-19T19:42:37.789Z,22.58
2022-08-19T19:47:39.939Z,22.57
2022-08-19T19:52:42.886Z,22.58
2022-08-19T19:57:48.931Z,22.61
2022-08-19T20:02:51.639Z,22.56
2022-08-19T20:08:13.678Z,22.57
2022-08-19T20:13:15.833Z,22.55
2022-08-19T20:18:18.354Z,22.58
2022-08-19T20:23:22.431Z,22.46
2022-08-19T20:28:24.488Z,22.43
2022-08-19T20:33:28.595Z,22.45
2022-08-19T20:38:35.374Z,22.48
2022-08-19T20:43:39.192Z,22.50
2022-08-19T20:48:43.094Z,22.46
2022-08-19T20:53:45.115Z,22.41
2022-08-19T20:58:49.954Z,22.33
2022-08-19T21:03:56.245Z,22.24
2022-08-19T21:08:57.893Z,22.23
2022-08-19T21:14:01.138Z,22.25
2022-08-19T21:19:04.889Z,22.18
2022-08-19T21:24:06.865Z,22.16
2022-08-19T21:29:09.218Z,22.16
2022-08-19T21:34:12.966Z,22.10
2022-08-19T21:39:14.626Z,22.09
2022-08-19T21:44:17.047Z,22.05
2022-08-19T21:49:20.026Z,22.00
2022-08-19T21:54:22.552Z,21.98
2022-08-19T21:59:25.257Z,22.00
2022-08-19T22:04:28.595Z,22.00
2022-08-19T22:09:30.930Z,21.99
2022-08-19T22:14:33.919Z,21.91
2022-08-19T22:19:35.883Z,21.85
2022-08-19T22:24:37.595Z,21.82
2022-08-19T22:29:39.552Z,21.80
2022-08-19T22:34:42.033Z,21.81
2022-08-19T22:39:44.566Z,21.82
2022-08-19T22:44:47.020Z,21.81
2022-08-19T22:49:48.867Z,21.78
2022-08-19T22:54:52.897Z,21.80
2022-08-19T23:00:01.275Z,21.81
2022-08-19T23:05:05.514Z,21.82
2022-08-19T23:10:10.368Z,21.75
2022-08-19T23:15:26.009Z,21.67
2022-08-19T23:20:34.241Z,21.62
2022-08-19T23:25:37.334Z,21.56
2022-08-19T23:30:43.835Z,21.54
2022-08-19T23:35:45.931Z,21.54
2022-08-19T23:40:53.468Z,21.58
2022-08-19T23:46:00.945Z,21.63
2022-08-19T23:51:09.422Z,21.68
2022-08-19T23:56:12.897Z,21.66
